createdAt,value
2019-05-30T00:00:20.365Z,2.37
2019-05-30T00:02:50.377Z,3.43
2019-05-30T00:05:21.257Z,2.13
2019-05-30T00:07:51.941Z,2.30
2019-05-30T00:10:21.935Z,2.93
2019-05-30T00:12:52.597Z,2.10
2019-05-30T00:15:24.562Z,2.27
2019-05-30T00:17:54.872Z,2.33
2019-05-30T00:20:24.793Z,3.00
2019-05-30T00:22:55.174Z,2.40
2019-05-30T00:25:25.745Z,2.70
2019-05-30T00:27:57.060Z,2.40
2019-05-30T00:30:27.744Z,2.30
2019-05-30T00:32:58.925Z,2.50
2019-05-30T00:35:29.384Z,2.30
2019-05-30T00:38:01.882Z,2.73
2019-05-30T00:40:32.301Z,2.77
2019-05-30T00:43:04.231Z,2.50
2019-05-30T00:45:34.516Z,3.17
2019-05-30T00:48:04.908Z,3.53
2019-05-30T00:50:35.522Z,2.50
2019-05-30T00:53:07.056Z,2.97
2019-05-30T00:55:38.336Z,2.80
2019-05-30T00:58:08.338Z,2.23
2019-05-30T02:02:40.076Z,3.40
2019-05-30T02:05:10.756Z,2.90
2019-05-30T02:07:40.870Z,3.17
2019-05-30T02:10:11.662Z,3.47
2019-05-30T02:12:42.730Z,3.40
2019-05-30T02:15:14.257Z,2.90
2019-05-30T02:17:45.320Z,2.80
2019-05-30T02:20:16.985Z,3.00
2019-05-30T02:22:47.907Z,3.30
2019-05-30T02:25:17.878Z,2.93
2019-05-30T02:27:48.120Z,2.90
2019-05-30T02:30:18.473Z,3.50
2019-05-30T02:32:49.096Z,3.10
2019-05-30T02:35:19.323Z,3.57
2019-05-30T02:37:49.865Z,3.77
2019-05-30T02:40:20.903Z,3.73
2019-05-30T02:42:51.563Z,3.57
2019-05-30T02:45:22.005Z,3.07
2019-05-30T02:47:52.173Z,3.23
2019-05-30T02:50:22.810Z,3.83
2019-05-30T02:52:53.009Z,4.00
2019-05-30T02:55:24.702Z,3.77
2019-05-30T02:57:55.116Z,4.80
2019-05-30T03:00:32.627Z,3.67
2019-05-30T03:03:04.074Z,3.30
2019-05-30T03:05:35.610Z,3.10
2019-05-30T03:08:07.260Z,3.67
2019-05-30T03:10:38.163Z,3.17
2019-05-30T03:13:10.631Z,3.60
2019-05-30T03:15:40.809Z,3.57
2019-05-30T03:18:12.833Z,3.73
2019-05-30T03:20:42.846Z,4.30
2019-05-30T03:23:20.933Z,3.33
2019-05-30T03:25:51.201Z,3.33
2019-05-30T03:28:21.431Z,3.07
2019-05-30T03:30:51.801Z,3.10
2019-05-30T03:33:37.958Z,3.53
2019-05-30T03:35:54.762Z,3.37
2019-05-30T03:38:25.285Z,4.03
2019-05-30T03:41:04.582Z,3.57
2019-05-30T03:43:35.207Z,3.53
2019-05-30T03:46:10.452Z,3.17
2019-05-30T03:48:42.149Z,3.90
2019-05-30T03:51:15.123Z,3.77
2019-05-30T03:53:45.710Z,3.40
2019-05-30T03:56:17.834Z,3.10
2019-05-30T03:58:51.327Z,3.00
2019-05-30T04:01:25.456Z,3.63
2019-05-30T04:04:00.581Z,3.77
2019-05-30T04:06:32.332Z,3.40
2019-05-30T04:09:07.173Z,4.03
2019-05-30T04:11:40.339Z,3.20
2019-05-30T04:14:13.201Z,3.60
2019-05-30T04:16:44.724Z,3.40
2019-05-30T04:19:15.635Z,3.67
2019-05-30T04:21:47.193Z,3.63
2019-05-30T04:24:19.612Z,4.10
2019-05-30T04:26:49.773Z,3.60
2019-05-30T04:29:20.421Z,3.10
2019-05-30T04:31:51.037Z,3.67
2019-05-30T04:34:21.738Z,3.60
2019-05-30T04:36:53.560Z,3.43
2019-05-30T04:39:24.273Z,3.87
2019-05-30T04:41:54.436Z,4.00
2019-05-30T04:44:24.414Z,3.53
2019-05-30T04:46:54.791Z,3.50
2019-05-30T04:49:25.234Z,3.03
2019-05-30T04:51:55.519Z,4.00
2019-05-30T04:54:34.526Z,3.43
2019-05-30T04:57:04.820Z,3.33
2019-05-30T04:59:34.834Z,3.33
2019-05-30T05:02:05.087Z,3.60
2019-05-30T05:04:35.492Z,3.70
2019-05-30T05:07:06.427Z,4.30
2019-05-30T05:09:36.370Z,3.20
2019-05-30T05:12:07.149Z,3.40
2019-05-30T05:14:37.041Z,3.60
2019-05-30T05:17:07.532Z,4.20
2019-05-30T05:19:37.869Z,3.90
2019-05-30T05:22:08.444Z,3.40
2019-05-30T05:24:38.740Z,4.17
2019-05-30T05:27:09.957Z,3.43
2019-05-30T05:29:40.851Z,3.40
2019-05-30T05:32:12.528Z,4.00
2019-05-30T05:34:43.268Z,3.20
2019-05-30T05:37:14.898Z,3.70
2019-05-30T05:39:45.566Z,3.40
2019-05-30T05:42:16.443Z,3.60
2019-05-30T05:44:47.132Z,4.23
2019-05-30T05:47:18.478Z,3.93
2019-05-30T05:49:49.561Z,3.13
2019-05-30T05:52:20.720Z,3.17
2019-05-30T05:54:50.907Z,2.57
2019-05-30T05:57:21.099Z,3.40
2019-05-30T05:59:51.024Z,3.43
2019-05-30T06:02:21.595Z,3.40
2019-05-30T06:04:52.586Z,3.73
2019-05-30T06:07:22.944Z,3.00
2019-05-30T06:09:53.531Z,3.30
2019-05-30T06:12:24.170Z,2.97
2019-05-30T06:14:54.399Z,4.27
2019-05-30T06:17:25.164Z,3.37
2019-05-30T06:19:55.881Z,3.30
2019-05-30T06:22:27.614Z,3.60
2019-05-30T06:24:58.443Z,3.07
2019-05-30T06:27:28.801Z,3.23
2019-05-30T06:29:59.695Z,3.27
2019-05-30T06:32:30.665Z,3.07
2019-05-30T06:35:01.511Z,3.43
2019-05-30T06:37:31.451Z,3.30
2019-05-30T06:40:01.728Z,2.97
2019-05-30T06:42:33.871Z,3.27
2019-05-30T06:45:04.159Z,2.63
2019-05-30T06:47:34.687Z,2.63
2019-05-30T06:50:06.015Z,2.40
2019-05-30T06:52:36.447Z,3.03
2019-05-30T06:55:07.621Z,2.63
2019-05-30T06:57:38.207Z,3.03
2019-05-30T07:00:08.966Z,3.03
2019-05-30T07:02:40.087Z,2.60
2019-05-30T07:05:11.787Z,2.13
2019-05-30T07:07:43.031Z,2.03
2019-05-30T07:10:14.261Z,2.13
2019-05-30T07:12:45.169Z,2.70
2019-05-30T07:15:16.464Z,2.60
2019-05-30T07:17:47.144Z,2.57
2019-05-30T07:20:18.095Z,3.30
2019-05-30T07:22:49.231Z,2.60
2019-05-30T07:25:20.313Z,3.03
2019-05-30T07:27:50.619Z,3.10
2019-05-30T07:30:21.444Z,2.73
2019-05-30T07:32:52.267Z,2.73
2019-05-30T07:35:23.944Z,2.93
2019-05-30T07:37:53.977Z,2.67
2019-05-30T07:40:24.613Z,2.30
2019-05-30T07:42:56.071Z,2.13
2019-05-30T07:45:28.912Z,1.90
2019-05-30T07:48:00.624Z,2.20
2019-05-30T07:50:32.672Z,1.73
2019-05-30T07:53:04.184Z,2.03
2019-05-30T07:55:35.582Z,2.00
2019-05-30T07:58:06.493Z,1.67
2019-05-30T08:00:37.697Z,2.03
2019-05-30T08:03:09.084Z,2.27
2019-05-30T08:05:40.801Z,2.10
2019-05-30T08:08:12.309Z,2.00
2019-05-30T08:10:44.374Z,1.50
2019-05-30T08:13:15.484Z,1.80
2019-05-30T08:15:47.013Z,1.60
2019-05-30T08:18:18.747Z,2.00
2019-05-30T08:20:49.511Z,1.60
2019-05-30T08:23:21.036Z,1.70
2019-05-30T08:25:52.147Z,2.00
2019-05-30T08:28:23.974Z,1.77
2019-05-30T08:30:56.975Z,2.00
2019-05-30T08:33:29.540Z,1.60
2019-05-30T08:36:05.391Z,2.00
2019-05-30T08:38:35.328Z,1.93
2019-05-30T08:41:08.926Z,1.70
2019-05-30T08:43:40.061Z,1.87
2019-05-30T08:46:11.376Z,1.83
2019-05-30T08:48:42.739Z,1.67
2019-05-30T08:51:13.860Z,1.80
2019-05-30T08:53:45.299Z,1.67
2019-05-30T08:56:17.148Z,1.83
2019-05-30T08:58:48.752Z,1.80
2019-05-30T09:01:21.492Z,1.63
2019-05-30T09:03:52.493Z,1.70
2019-05-30T09:06:24.521Z,2.03
2019-05-30T09:08:57.357Z,2.13
2019-05-30T09:11:28.457Z,2.40
2019-05-30T09:13:59.720Z,2.20
2019-05-30T09:16:31.072Z,2.37
2019-05-30T09:19:02.792Z,2.80
2019-05-30T09:21:34.602Z,3.07
2019-05-30T09:24:05.462Z,2.60
2019-05-30T09:26:35.732Z,2.70
2019-05-30T09:29:05.961Z,2.37
2019-05-30T09:31:36.198Z,3.20
2019-05-30T09:34:06.805Z,2.90
2019-05-30T09:36:39.424Z,2.30
2019-05-30T09:39:09.060Z,2.73
2019-05-30T09:41:40.989Z,3.10
2019-05-30T09:44:11.486Z,2.60
2019-05-30T09:46:42.568Z,2.73
2019-05-30T09:49:14.586Z,3.30
2019-05-30T09:51:47.006Z,2.60
2019-05-30T09:54:18.911Z,2.67
2019-05-30T09:56:50.972Z,3.83
2019-05-30T09:59:21.925Z,2.20
2019-05-30T10:01:52.979Z,2.43
2019-05-30T10:04:23.816Z,3.07
2019-05-30T10:06:53.725Z,2.43
2019-05-30T10:09:24.673Z,2.30
2019-05-30T10:11:55.519Z,2.60
2019-05-30T10:14:27.156Z,2.30
2019-05-30T10:16:58.111Z,2.27
2019-05-30T10:19:28.714Z,2.07
2019-05-30T10:21:58.583Z,2.30
2019-05-30T10:24:28.903Z,2.30
2019-05-30T10:26:59.501Z,1.70
2019-05-30T10:29:30.097Z,2.30
2019-05-30T10:32:00.663Z,2.27
2019-05-30T10:34:31.274Z,2.53
2019-05-30T10:37:01.559Z,2.23
2019-05-30T10:39:32.135Z,1.90
2019-05-30T10:42:02.513Z,2.03
2019-05-30T10:44:33.084Z,1.90
2019-05-30T10:47:04.616Z,1.97
2019-05-30T10:49:36.345Z,2.20
2019-05-30T10:52:08.263Z,2.33
2019-05-30T10:54:39.787Z,2.40
2019-05-30T10:57:11.156Z,2.50
2019-05-30T10:59:43.007Z,1.60
2019-05-30T11:02:13.759Z,2.07
2019-05-30T11:04:45.934Z,2.00
2019-05-30T11:07:28.608Z,2.60
2019-05-30T11:10:06.744Z,2.00
2019-05-30T11:12:38.662Z,2.37
2019-05-30T11:15:10.378Z,2.50
2019-05-30T11:17:41.823Z,2.10
2019-05-30T11:20:14.837Z,1.97
2019-05-30T11:22:46.290Z,1.97
2019-05-30T11:25:17.644Z,1.93
2019-05-30T11:27:50.573Z,2.60
2019-05-30T11:30:23.174Z,1.97
2019-05-30T11:32:55.204Z,2.17
2019-05-30T11:35:26.765Z,2.17
2019-05-30T11:37:59.257Z,2.90
2019-05-30T11:40:31.220Z,2.30
2019-05-30T11:43:02.257Z,2.83
2019-05-30T11:45:33.407Z,2.10
2019-05-30T11:48:05.568Z,2.20
2019-05-30T11:50:36.626Z,2.00
2019-05-30T11:53:07.716Z,2.13
2019-05-30T11:55:40.103Z,2.27
2019-05-30T11:58:11.544Z,1.87
2019-05-30T12:00:42.282Z,1.83
2019-05-30T12:03:13.339Z,1.87
2019-05-30T12:05:44.792Z,1.63
2019-05-30T12:08:16.572Z,1.90
2019-05-30T12:10:47.933Z,1.50
2019-05-30T12:13:19.084Z,2.30
2019-05-30T12:15:51.302Z,2.27
2019-05-30T12:18:22.529Z,2.27
2019-05-30T12:21:09.319Z,1.83
2019-05-30T12:23:40.918Z,2.00
2019-05-30T12:26:12.454Z,2.57
2019-05-30T12:28:43.838Z,2.03
2019-05-30T12:31:15.595Z,5.00
2019-05-30T12:33:47.380Z,6.70
2019-05-30T12:36:19.728Z,4.17
2019-05-30T12:38:52.221Z,1.90
2019-05-30T12:41:23.967Z,1.80
2019-05-30T12:43:55.071Z,1.83
2019-05-30T12:46:26.460Z,1.47
2019-05-30T12:48:57.696Z,1.73
2019-05-30T12:51:28.701Z,2.00
2019-05-30T12:54:00.460Z,2.23
2019-05-30T12:56:32.443Z,1.80
2019-05-30T12:59:03.495Z,1.77
2019-05-30T13:01:34.897Z,1.80
2019-05-30T13:04:07.644Z,1.47
2019-05-30T13:06:38.692Z,1.60
2019-05-30T13:09:10.240Z,1.70
2019-05-30T13:11:41.972Z,2.03
2019-05-30T13:14:13.719Z,2.60
2019-05-30T13:16:44.771Z,2.50
2019-05-30T13:19:15.893Z,2.13
2019-05-30T13:21:47.437Z,1.63
2019-05-30T13:24:19.170Z,1.90
2019-05-30T13:26:51.674Z,2.93
2019-05-30T13:29:23.105Z,1.93
2019-05-30T13:31:54.513Z,2.93
2019-05-30T13:34:27.829Z,1.50
2019-05-30T13:36:59.500Z,2.40
2019-05-30T13:39:30.483Z,2.27
2019-05-30T13:42:01.675Z,2.37
2019-05-30T13:44:33.692Z,2.00
2019-05-30T13:47:04.607Z,1.90
2019-05-30T13:49:37.525Z,1.20
2019-05-30T13:52:24.074Z,1.00
2019-05-30T13:54:55.585Z,1.10
2019-05-30T13:57:27.744Z,1.20
2019-05-30T13:59:59.624Z,1.60
2019-05-30T14:02:31.473Z,2.00
2019-05-30T14:05:08.187Z,2.50
2019-05-30T14:07:39.373Z,2.80
2019-05-30T14:10:11.669Z,2.30
2019-05-30T14:12:43.544Z,1.20
2019-05-30T14:15:15.860Z,1.33
2019-05-30T14:17:47.840Z,1.20
2019-05-30T14:20:20.038Z,1.40
2019-05-30T14:22:50.836Z,1.50
2019-05-30T14:25:21.993Z,2.53
2019-05-30T14:27:54.094Z,1.80
2019-05-30T14:30:25.808Z,1.43
2019-05-30T14:32:56.530Z,1.80
2019-05-30T14:35:28.300Z,1.30
2019-05-30T14:38:00.079Z,1.37
2019-05-30T14:40:31.808Z,1.20
2019-05-30T14:43:03.263Z,1.93
2019-05-30T14:45:35.208Z,1.90
2019-05-30T14:48:06.752Z,1.10
2019-05-30T14:50:38.218Z,1.23
2019-05-30T14:53:10.849Z,1.20
2019-05-30T14:55:42.602Z,1.10
2019-05-30T14:58:14.504Z,1.20
2019-05-30T15:00:46.359Z,1.10
2019-05-30T15:03:17.615Z,1.00
2019-05-30T15:05:48.789Z,1.40
2019-05-30T15:08:20.140Z,1.17
2019-05-30T15:10:51.250Z,1.10
2019-05-30T15:13:22.127Z,1.20
2019-05-30T15:15:57.043Z,1.17
2019-05-30T15:18:27.385Z,1.97
2019-05-30T15:20:59.020Z,1.47
2019-05-30T15:23:30.480Z,4.20
2019-05-30T15:26:01.921Z,2.37
2019-05-30T15:28:34.604Z,1.30
2019-05-30T15:31:06.742Z,1.40
2019-05-30T15:33:38.856Z,1.10
2019-05-30T15:36:10.699Z,1.30
2019-05-30T15:38:42.605Z,1.10
2019-05-30T15:41:15.254Z,1.30
2019-05-30T15:43:46.785Z,1.20
2019-05-30T15:46:18.905Z,1.37
2019-05-30T15:48:51.056Z,1.27
2019-05-30T15:51:23.520Z,1.40
2019-05-30T15:53:56.020Z,0.90
2019-05-30T15:56:27.697Z,1.10
2019-05-30T15:58:59.900Z,1.07
2019-05-30T16:01:31.328Z,1.10
2019-05-30T16:04:02.669Z,1.40
2019-05-30T16:06:33.865Z,1.10
2019-05-30T16:09:06.473Z,1.40
2019-05-30T16:11:36.956Z,1.50
2019-05-30T16:14:07.785Z,1.20
2019-05-30T16:16:40.032Z,1.47
2019-05-30T16:19:17.368Z,1.10
2019-05-30T16:21:41.856Z,1.53
2019-05-30T16:24:12.821Z,1.53
2019-05-30T16:26:44.067Z,1.20
2019-05-30T16:29:14.036Z,1.57
2019-05-30T16:31:44.592Z,1.27
2019-05-30T16:34:16.139Z,1.43
2019-05-30T16:36:46.519Z,1.50
2019-05-30T16:39:18.182Z,1.30
2019-05-30T16:41:49.167Z,1.27
2019-05-30T16:44:20.422Z,1.50
2019-05-30T16:46:51.127Z,1.23
2019-05-30T16:49:22.929Z,1.80
2019-05-30T16:51:53.608Z,1.13
2019-05-30T16:54:24.244Z,1.23
2019-05-30T16:56:54.548Z,1.30
2019-05-30T16:59:28.561Z,1.40
2019-05-30T17:01:59.406Z,1.53
2019-05-30T17:04:30.072Z,1.30
2019-05-30T17:07:00.756Z,1.30
2019-05-30T17:09:31.433Z,1.20
2019-05-30T17:12:02.024Z,1.27
2019-05-30T17:14:37.588Z,1.60
2019-05-30T17:17:06.375Z,1.50
2019-05-30T17:19:39.298Z,1.57
2019-05-30T17:22:08.865Z,1.30
2019-05-30T17:24:39.410Z,1.10
2019-05-30T17:27:10.645Z,1.10
2019-05-30T17:29:42.480Z,1.73
2019-05-30T17:32:20.010Z,1.60
2019-05-30T17:34:51.793Z,1.60
2019-05-30T17:37:24.573Z,1.57
2019-05-30T17:39:55.430Z,1.30
2019-05-30T17:42:27.009Z,1.10
2019-05-30T17:44:59.311Z,1.40
2019-05-30T17:47:30.788Z,1.43
2019-05-30T17:50:02.731Z,1.30
2019-05-30T17:52:35.698Z,1.53
2019-05-30T17:55:07.565Z,1.40
2019-05-30T17:57:39.086Z,1.27
2019-05-30T18:00:10.667Z,1.40
2019-05-30T18:02:42.029Z,1.30
2019-05-30T18:05:14.843Z,1.40
2019-05-30T18:07:45.899Z,1.33
2019-05-30T18:10:17.648Z,1.70
2019-05-30T18:12:49.044Z,1.40
2019-05-30T18:15:28.959Z,1.37
2019-05-30T18:18:00.037Z,1.33
2019-05-30T18:20:35.649Z,1.50
2019-05-30T18:23:04.439Z,1.70
2019-05-30T18:25:37.075Z,1.30
2019-05-30T18:28:08.496Z,1.57
2019-05-30T18:30:39.830Z,1.20
2019-05-30T18:33:10.092Z,1.50
2019-05-30T18:35:40.319Z,1.30
2019-05-30T18:38:10.919Z,1.40
2019-05-30T18:40:42.467Z,1.30
2019-05-30T18:43:14.221Z,1.43
2019-05-30T18:45:46.315Z,1.73
2019-05-30T18:48:17.979Z,1.30
2019-05-30T18:50:49.569Z,1.20
2019-05-30T18:53:21.997Z,1.50
2019-05-30T18:55:53.130Z,1.30
2019-05-30T18:58:24.749Z,1.50
2019-05-30T19:00:55.949Z,1.47
2019-05-30T19:03:26.738Z,1.30
2019-05-30T19:06:06.480Z,1.67
2019-05-30T19:08:37.476Z,1.60
2019-05-30T19:11:07.400Z,1.90
2019-05-30T19:13:37.652Z,1.30
2019-05-30T19:16:08.208Z,1.43
2019-05-30T19:18:39.174Z,1.20
2019-05-30T19:21:09.657Z,1.37
2019-05-30T19:23:40.728Z,1.67
2019-05-30T19:26:12.588Z,1.33
2019-05-30T19:28:44.319Z,1.80
2019-05-30T19:31:15.867Z,1.53
2019-05-30T19:33:46.811Z,1.40
2019-05-30T19:36:17.411Z,1.50
2019-05-30T19:38:47.286Z,1.37
2019-05-30T19:41:17.232Z,1.60
2019-05-30T19:43:48.225Z,2.07
2019-05-30T19:46:18.775Z,1.63
2019-05-30T19:48:55.012Z,1.57
2019-05-30T19:51:26.269Z,1.83
2019-05-30T19:53:56.524Z,1.80
2019-05-30T19:56:27.164Z,1.70
2019-05-30T19:58:58.179Z,1.57
2019-05-30T20:01:29.715Z,1.73
2019-05-30T20:04:00.152Z,1.70
2019-05-30T20:06:30.844Z,1.80
2019-05-30T20:09:07.315Z,1.57
2019-05-30T20:11:39.342Z,1.80
2019-05-30T20:14:10.359Z,1.60
2019-05-30T20:16:41.919Z,1.77
2019-05-30T20:19:13.308Z,1.70
2019-05-30T20:21:43.273Z,2.03
2019-05-30T20:24:14.204Z,1.83
2019-05-30T20:26:44.849Z,2.33
2019-05-30T20:29:15.535Z,2.30
2019-05-30T20:31:46.493Z,1.90
2019-05-30T20:34:17.671Z,1.63
2019-05-30T20:36:48.632Z,1.93
2019-05-30T20:39:19.237Z,2.10
2019-05-30T20:41:50.171Z,1.90
2019-05-30T20:44:20.455Z,1.60
2019-05-30T20:46:51.100Z,1.70
2019-05-30T20:49:21.973Z,1.80
2019-05-30T20:51:51.869Z,1.90
2019-05-30T20:54:22.515Z,1.63
2019-05-30T20:56:52.894Z,2.10
2019-05-30T20:59:23.630Z,2.17
2019-05-30T21:01:54.179Z,2.07
2019-05-30T21:04:24.779Z,2.83
2019-05-30T21:07:03.523Z,2.00
2019-05-30T21:09:35.927Z,2.10
2019-05-30T21:12:06.321Z,2.00
2019-05-30T21:14:37.284Z,2.30
2019-05-30T21:17:07.788Z,2.20
2019-05-30T21:19:38.449Z,2.17
2019-05-30T21:22:09.956Z,1.60
2019-05-30T21:24:40.662Z,2.07
2019-05-30T21:27:11.769Z,1.90
2019-05-30T21:29:43.164Z,1.53
2019-05-30T21:32:13.868Z,1.37
2019-05-30T21:34:44.613Z,2.07
2019-05-30T21:37:16.228Z,2.30
2019-05-30T21:39:48.169Z,2.37
2019-05-30T21:42:18.833Z,1.97
2019-05-30T21:44:52.366Z,2.27
2019-05-30T21:47:21.800Z,1.80
2019-05-30T21:49:53.095Z,1.83
2019-05-30T21:52:24.451Z,2.03
2019-05-30T21:54:55.257Z,1.93
2019-05-30T21:57:26.013Z,2.20
2019-05-30T21:59:56.722Z,2.23
2019-05-30T22:02:26.982Z,2.40
2019-05-30T22:04:57.229Z,2.00
2019-05-30T22:07:28.199Z,2.20
2019-05-30T22:09:58.452Z,2.00
2019-05-30T22:12:29.152Z,2.17
2019-05-30T22:14:59.887Z,2.80
2019-05-30T22:17:30.382Z,2.10
2019-05-30T22:20:00.356Z,2.30
2019-05-30T22:22:30.930Z,2.57
2019-05-30T22:25:01.220Z,1.73
2019-05-30T22:27:31.550Z,1.97
2019-05-30T22:30:02.079Z,1.80
2019-05-30T22:32:32.743Z,2.40
2019-05-30T22:35:03.020Z,2.23
2019-05-30T22:37:33.904Z,2.40
2019-05-30T22:40:03.971Z,1.97
2019-05-30T22:42:35.156Z,2.60
2019-05-30T22:45:05.103Z,1.97
2019-05-30T22:47:35.898Z,2.43
2019-05-30T22:50:07.106Z,2.40
2019-05-30T22:52:39.292Z,2.53
2019-05-30T22:55:09.568Z,2.50
2019-05-30T22:57:39.835Z,1.90
2019-05-30T23:00:10.987Z,2.73
2019-05-30T23:02:41.315Z,2.40
2019-05-30T23:05:11.931Z,2.20
2019-05-30T23:07:42.460Z,2.07
2019-05-30T23:10:13.127Z,1.70
2019-05-30T23:12:44.192Z,2.10
2019-05-30T23:15:15.186Z,3.07
2019-05-30T23:17:46.256Z,2.53
2019-05-30T23:20:16.992Z,2.50
2019-05-30T23:22:48.765Z,2.40
2019-05-30T23:25:19.763Z,2.40
2019-05-30T23:27:50.016Z,2.20
2019-05-30T23:30:20.630Z,2.40
2019-05-30T23:32:51.923Z,2.70
2019-05-30T23:35:22.725Z,2.30
2019-05-30T23:37:53.069Z,2.63
2019-05-30T23:40:23.422Z,2.70
2019-05-30T23:42:55.072Z,2.50
2019-05-30T23:45:25.240Z,2.40
2019-05-30T23:47:55.815Z,2.40
2019-05-30T23:50:26.776Z,2.83
2019-05-30T23:52:58.180Z,2.30
2019-05-30T23:55:28.601Z,2.37
2019-05-30T23:58:00.599Z,1.83
